Time,TemperatureF,DewpointF,PressureIn,WindDirection,WindDirectionDegrees,WindSpeedMPH,WindSpeedGustMPH,Humidity,HourlyPrecipIn,Conditions,Clouds,dailyrainin,SoftwareType,DateUTC
2013-01-25 00:02:00,23.4,19.6,30.04,NNE,26,0.0,5.0,85,0.00,,,0.00,meteohub,2013-01-24 23:02:00,
2013-01-25 00:32:00,23.4,19.6,30.04,NNW,340,0.0,4.0,85,0.00,,,0.00,meteohub,2013-01-24 23:32:00,
2013-01-25 01:02:00,23.2,19.9,30.05,NNW,340,0.0,2.0,87,0.00,,,0.00,meteohub,2013-01-25 00:02:00,
2013-01-25 01:32:00,23.2,19.6,30.05,NNW,333,0.0,4.0,86,0.00,,,0.00,meteohub,2013-01-25 00:32:00,
2013-01-25 02:02:00,23.0,19.2,30.06,NNE,29,1.0,7.0,85,0.00,,,0.00,meteohub,2013-01-25 01:02:00,
2013-01-25 02:32:00,22.8,19.0,30.06,North,0,1.0,3.0,85,0.00,,,0.00,meteohub,2013-01-25 01:32:00,
2013-01-25 03:02:00,22.6,18.9,30.07,NE,42,0.0,3.0,85,0.00,,,0.00,meteohub,2013-01-25 02:02:00,
2013-01-25 03:32:00,22.8,19.0,30.07,WSW,246,1.0,2.0,85,0.00,,,0.00,meteohub,2013-01-25 02:32:00,
2013-01-25 04:02:00,22.8,19.0,30.08,North,5,4.0,4.0,85,0.00,,,0.00,meteohub,2013-01-25 03:02:00,
2013-01-25 04:32:00,22.8,19.0,30.09,North,11,0.0,3.0,85,0.00,,,0.00,meteohub,2013-01-25 03:32:00,
2013-01-25 05:02:00,22.8,19.0,30.09,North,355,0.0,4.0,85,0.00,,,0.00,meteohub,2013-01-25 04:02:00,
2013-01-25 05:32:00,22.8,19.0,30.09,NE,51,1.0,4.0,85,0.00,,,0.00,meteohub,2013-01-25 04:32:00,
2013-01-25 06:02:00,22.8,19.0,30.10,ESE,111,0.0,3.0,85,0.00,,,0.00,meteohub,2013-01-25 05:02:00,
2013-01-25 06:32:00,22.8,19.2,30.10,NNE,30,0.0,6.0,86,0.00,,,0.00,meteohub,2013-01-25 05:32:00,
2013-01-25 07:02:00,22.8,19.2,30.11,North,5,4.0,5.0,86,0.00,,,0.00,meteohub,2013-01-25 06:02:00,
2013-01-25 07:32:00,22.8,19.2,30.12,North,0,0.0,5.0,86,0.00,,,0.00,meteohub,2013-01-25 06:32:00,
2013-01-25 08:02:00,22.6,19.0,30.12,North,5,4.0,9.0,86,0.00,,,0.00,meteohub,2013-01-25 07:02:00,
2013-01-25 08:32:00,22.6,19.0,30.12,NNW,346,6.0,8.0,86,0.00,,,0.00,meteohub,2013-01-25 07:32:00,
2013-01-25 09:02:00,22.8,19.2,30.13,NNE,19,5.0,7.0,86,0.00,,,0.00,meteohub,2013-01-25 08:02:00,
2013-01-25 09:32:00,22.8,19.2,30.14,NNW,344,3.0,5.0,86,0.00,,,0.00,meteohub,2013-01-25 08:32:00,
2013-01-25 10:02:00,23.0,18.9,30.14,NW,317,4.0,7.0,84,0.00,,,0.00,meteohub,2013-01-25 09:02:00,
2013-01-25 10:32:00,23.2,19.0,30.16,NNE,19,5.0,6.0,84,0.00,,,0.00,meteohub,2013-01-25 09:32:00,
2013-01-25 11:02:00,23.2,18.9,30.17,North,355,2.0,6.0,83,0.00,,,0.00,meteohub,2013-01-25 10:02:00,
2013-01-25 11:32:00,23.4,19.0,30.16,NNW,348,2.0,7.0,83,0.00,,,0.00,meteohub,2013-01-25 10:32:00,
2013-01-25 12:02:00,23.4,19.0,30.16,NNW,346,0.0,7.0,83,0.00,,,0.00,meteohub,2013-01-25 11:02:00,
2013-01-25 12:32:00,23.7,19.0,30.16,NW,322,3.0,5.0,82,0.00,,,0.00,meteohub,2013-01-25 11:32:00,
2013-01-25 13:02:00,24.1,19.4,30.16,ENE,59,1.0,6.0,82,0.00,,,0.00,meteohub,2013-01-25 12:02:00,
2013-01-25 13:32:00,24.1,19.4,30.16,NW,314,3.0,5.0,82,0.00,,,0.00,meteohub,2013-01-25 12:32:00,
2013-01-25 14:02:00,24.1,19.4,30.15,North,5,3.0,6.0,82,0.00,,,0.00,meteohub,2013-01-25 13:02:00,
2013-01-25 14:32:00,24.1,19.8,30.16,NNW,342,1.0,6.0,83,0.00,,,0.00,meteohub,2013-01-25 13:32:00,
2013-01-25 15:02:00,23.7,19.4,30.17,NNE,12,3.0,4.0,83,0.00,,,0.00,meteohub,2013-01-25 14:02:00,
2013-01-25 15:32:00,23.7,19.0,30.16,NNW,344,0.0,1.0,82,0.00,,,0.00,meteohub,2013-01-25 14:32:00,
2013-01-25 16:02:00,24.1,19.4,30.17,NNW,344,0.0,1.0,82,0.00,,,0.00,meteohub,2013-01-25 15:02:00,
2013-01-25 16:32:00,23.9,19.2,30.17,NW,315,0.0,3.0,82,0.00,,,0.00,meteohub,2013-01-25 15:32:00,
2013-01-25 17:02:00,23.5,19.2,30.18,NW,315,0.0,1.0,83,0.00,,,0.00,meteohub,2013-01-25 16:02:00,
2013-01-25 17:32:00,23.2,19.0,30.18,North,0,0.0,3.0,84,0.00,,,0.00,meteohub,2013-01-25 16:32:00,
2013-01-25 18:02:00,22.5,18.1,30.18,North,0,0.0,2.0,83,0.00,,,0.00,meteohub,2013-01-25 17:02:00,
2013-01-25 18:32:00,20.7,17.1,30.18,NNW,344,0.0,1.0,86,0.00,,,0.00,meteohub,2013-01-25 17:32:00,
2013-01-25 19:02:00,18.9,15.6,30.19,NNW,344,0.0,1.0,87,0.00,,,0.00,meteohub,2013-01-25 18:02:00,
2013-01-25 19:32:00,16.9,14.0,30.19,NNW,344,0.0,1.0,88,0.00,,,0.00,meteohub,2013-01-25 18:32:00,
2013-01-25 20:02:00,15.4,13.1,30.19,NNW,344,1.0,2.0,90,0.00,,,0.00,meteohub,2013-01-25 19:02:00,
2013-01-25 20:32:00,14.2,11.8,30.19,NNW,344,0.0,1.0,90,0.00,,,0.00,meteohub,2013-01-25 19:32:00,
2013-01-25 21:02:00,13.1,10.8,30.19,NNW,344,0.0,0.0,90,0.00,,,0.00,meteohub,2013-01-25 20:02:00,
2013-01-25 21:32:00,12.2,9.9,30.19,NNW,344,0.0,0.0,90,0.00,,,0.00,meteohub,2013-01-25 20:32:00,
2013-01-25 22:02:00,10.9,8.6,30.18,NNW,344,0.0,0.0,90,0.00,,,0.00,meteohub,2013-01-25 21:02:00,
2013-01-25 22:32:00,10.2,7.9,30.17,NNW,344,0.0,0.0,90,0.00,,,0.00,meteohub,2013-01-25 21:32:00,
2013-01-25 23:02:00,9.7,7.5,30.17,NNW,344,0.0,0.0,91,0.00,,,0.00,meteohub,2013-01-25 22:02:00,
2013-01-25 23:32:00,9.0,6.6,30.16,NNW,344,0.0,1.0,90,0.00,,,0.00,meteohub,2013-01-25 22:32:00,